sensor_id;sensor_type;location;lat;lon;timestamp;pressure;altitude;pressure_sealevel;temperature;humidity
59939;BME280;45801;51.810;19.444;2022-08-03T00:02:24;99426.15;;;18.01;75.00
59939;BME280;45801;51.810;19.444;2022-08-03T00:04:50;99428.94;;;18.00;75.05
59939;BME280;45801;51.810;19.444;2022-08-03T00:07:16;99426.98;;;17.98;75.02
59939;BME280;45801;51.810;19.444;2022-08-03T00:09:42;99424.10;;;17.96;74.84
59939;BME280;45801;51.810;19.444;2022-08-03T00:12:08;99422.31;;;17.95;74.84
59939;BME280;45801;51.810;19.444;2022-08-03T00:14:34;99422.27;;;17.93;75.06
59939;BME280;45801;51.810;19.444;2022-08-03T00:17:00;99422.09;;;17.92;75.16
59939;BME280;45801;51.810;19.444;2022-08-03T00:19:25;99417.98;;;17.91;75.12
59939;BME280;45801;51.810;19.444;2022-08-03T00:21:52;99419.02;;;17.90;75.18
59939;BME280;45801;51.810;19.444;2022-08-03T00:24:18;99419.35;;;17.89;75.15
59939;BME280;45801;51.810;19.444;2022-08-03T00:26:44;99420.70;;;17.86;74.97
59939;BME280;45801;51.810;19.444;2022-08-03T00:29:10;99416.76;;;17.83;74.83
59939;BME280;45801;51.810;19.444;2022-08-03T00:31:36;99415.82;;;17.80;74.85
59939;BME280;45801;51.810;19.444;2022-08-03T00:34:01;99416.30;;;17.77;75.17
59939;BME280;45801;51.810;19.444;2022-08-03T00:36:27;99417.16;;;17.75;74.92
59939;BME280;45801;51.810;19.444;2022-08-03T00:38:54;99419.27;;;17.74;75.39
59939;BME280;45801;51.810;19.444;2022-08-03T00:41:21;99418.02;;;17.74;75.50
59939;BME280;45801;51.810;19.444;2022-08-03T00:43:47;99413.57;;;17.73;75.73
59939;BME280;45801;51.810;19.444;2022-08-03T00:46:12;99413.05;;;17.72;75.72
59939;BME280;45801;51.810;19.444;2022-08-03T00:48:38;99410.04;;;17.73;75.67
59939;BME280;45801;51.810;19.444;2022-08-03T00:51:04;99410.58;;;17.74;75.71
59939;BME280;45801;51.810;19.444;2022-08-03T00:53:31;99409.50;;;17.73;75.43
59939;BME280;45801;51.810;19.444;2022-08-03T00:55:59;99406.10;;;17.71;75.23
59939;BME280;45801;51.810;19.444;2022-08-03T00:58:24;99406.77;;;17.69;75.03
59939;BME280;45801;51.810;19.444;2022-08-03T01:00:50;99411.16;;;17.66;75.16
59939;BME280;45801;51.810;19.444;2022-08-03T01:03:16;99411.45;;;17.62;75.15
59939;BME280;45801;51.810;19.444;2022-08-03T01:05:59;99414.39;;;17.59;74.99
59939;BME280;45801;51.810;19.444;2022-08-03T01:08:54;99416.81;;;17.56;75.27
59939;BME280;45801;51.810;19.444;2022-08-03T01:11:48;99418.69;;;17.51;75.43
59939;BME280;45801;51.810;19.444;2022-08-03T01:14:20;99418.42;;;17.46;75.62
59939;BME280;45801;51.810;19.444;2022-08-03T01:16:58;99414.83;;;17.44;75.43
59939;BME280;45801;51.810;19.444;2022-08-03T01:22:28;99415.64;;;17.40;75.35
59939;BME280;45801;51.810;19.444;2022-08-03T01:30:17;99419.45;;;17.35;74.92
59939;BME280;45801;51.810;19.444;2022-08-03T01:32:50;99421.89;;;17.34;74.84
59939;BME280;45801;51.810;19.444;2022-08-03T01:35:25;99418.88;;;17.33;75.01
59939;BME280;45801;51.810;19.444;2022-08-03T01:37:59;99422.95;;;17.33;75.06
59939;BME280;45801;51.810;19.444;2022-08-03T01:40:26;99424.02;;;17.33;75.43
59939;BME280;45801;51.810;19.444;2022-08-03T01:42:54;99424.40;;;17.35;75.48
59939;BME280;45801;51.810;19.444;2022-08-03T01:45:23;99421.92;;;17.36;75.73
59939;BME280;45801;51.810;19.444;2022-08-03T01:47:50;99421.78;;;17.37;75.48
59939;BME280;45801;51.810;19.444;2022-08-03T01:50:24;99423.20;;;17.37;75.40
59939;BME280;45801;51.810;19.444;2022-08-03T01:52:53;99418.23;;;17.36;75.47
59939;BME280;45801;51.810;19.444;2022-08-03T01:55:21;99417.09;;;17.33;75.27
59939;BME280;45801;51.810;19.444;2022-08-03T01:57:48;99418.83;;;17.31;75.41
59939;BME280;45801;51.810;19.444;2022-08-03T02:00:15;99416.65;;;17.27;75.21
59939;BME280;45801;51.810;19.444;2022-08-03T02:02:46;99415.91;;;17.26;75.18
59939;BME280;45801;51.810;19.444;2022-08-03T02:05:14;99416.24;;;17.25;75.29
59939;BME280;45801;51.810;19.444;2022-08-03T02:07:42;99410.89;;;17.24;75.66
59939;BME280;45801;51.810;19.444;2022-08-03T02:10:12;99409.83;;;17.23;75.60
59939;BME280;45801;51.810;19.444;2022-08-03T02:12:38;99406.27;;;17.22;75.73
59939;BME280;45801;51.810;19.444;2022-08-03T02:15:06;99409.25;;;17.21;75.82
59939;BME280;45801;51.810;19.444;2022-08-03T02:17:33;99406.54;;;17.18;75.46
59939;BME280;45801;51.810;19.444;2022-08-03T02:20:00;99408.29;;;17.16;75.34
59939;BME280;45801;51.810;19.444;2022-08-03T02:22:27;99410.71;;;17.13;75.45
59939;BME280;45801;51.810;19.444;2022-08-03T02:24:54;99411.21;;;17.12;75.30
59939;BME280;45801;51.810;19.444;2022-08-03T02:27:22;99407.63;;;17.10;75.12
59939;BME280;45801;51.810;19.444;2022-08-03T02:30:00;99409.89;;;17.08;75.29
59939;BME280;45801;51.810;19.444;2022-08-03T02:32:34;99412.67;;;17.06;75.34
59939;BME280;45801;51.810;19.444;2022-08-03T02:35:02;99408.63;;;17.06;75.65
59939;BME280;45801;51.810;19.444;2022-08-03T02:37:31;99409.52;;;17.07;75.62
59939;BME280;45801;51.810;19.444;2022-08-03T02:40:03;99412.74;;;17.09;75.58
59939;BME280;45801;51.810;19.444;2022-08-03T02:42:32;99411.48;;;17.07;75.65
59939;BME280;45801;51.810;19.444;2022-08-03T02:45:01;99410.39;;;17.06;75.50
59939;BME280;45801;51.810;19.444;2022-08-03T02:47:29;99414.77;;;17.05;75.38
59939;BME280;45801;51.810;19.444;2022-08-03T02:49:58;99415.45;;;17.03;75.25
59939;BME280;45801;51.810;19.444;2022-08-03T02:52:28;99418.61;;;17.02;75.59
59939;BME280;45801;51.810;19.444;2022-08-03T02:54:57;99419.10;;;17.00;75.25
59939;BME280;45801;51.810;19.444;2022-08-03T02:57:29;99418.73;;;16.99;75.29
59939;BME280;45801;51.810;19.444;2022-08-03T02:59:56;99421.17;;;16.97;75.38
59939;BME280;45801;51.810;19.444;2022-08-03T03:02:24;99422.59;;;16.97;75.39
59939;BME280;45801;51.810;19.444;2022-08-03T03:04:51;99423.30;;;16.97;75.51
59939;BME280;45801;51.810;19.444;2022-08-03T03:07:17;99423.66;;;16.97;75.58
59939;BME280;45801;51.810;19.444;2022-08-03T03:09:45;99421.71;;;16.97;75.50
59939;BME280;45801;51.810;19.444;2022-08-03T03:12:12;99421.85;;;16.96;75.62
59939;BME280;45801;51.810;19.444;2022-08-03T03:14:38;99423.04;;;16.93;75.40
59939;BME280;45801;51.810;19.444;2022-08-03T03:17:09;99424.92;;;16.90;75.31
59939;BME280;45801;51.810;19.444;2022-08-03T03:19:38;99423.23;;;16.93;75.80
59939;BME280;45801;51.810;19.444;2022-08-03T03:22:04;99420.48;;;16.98;75.44
59939;BME280;45801;51.810;19.444;2022-08-03T03:24:34;99420.67;;;16.99;75.64
59939;BME280;45801;51.810;19.444;2022-08-03T03:27:01;99419.96;;;16.99;75.55
59939;BME280;45801;51.810;19.444;2022-08-03T03:29:27;99420.49;;;16.99;75.80
59939;BME280;45801;51.810;19.444;2022-08-03T03:31:53;99418.21;;;17.00;75.91
59939;BME280;45801;51.810;19.444;2022-08-03T03:34:20;99414.50;;;17.00;75.86
59939;BME280;45801;51.810;19.444;2022-08-03T03:36:46;99412.53;;;16.99;75.88
59939;BME280;45801;51.810;19.444;2022-08-03T03:39:11;99414.45;;;16.97;75.71
59939;BME280;45801;51.810;19.444;2022-08-03T03:41:38;99417.08;;;16.96;75.71
59939;BME280;45801;51.810;19.444;2022-08-03T03:44:04;99423.09;;;16.95;75.71
59939;BME280;45801;51.810;19.444;2022-08-03T03:46:30;99419.36;;;16.94;75.62
59939;BME280;45801;51.810;19.444;2022-08-03T03:48:56;99419.52;;;16.94;76.00
59939;BME280;45801;51.810;19.444;2022-08-03T03:51:22;99421.85;;;16.95;75.94
59939;BME280;45801;51.810;19.444;2022-08-03T03:53:58;99430.02;;;16.98;76.23
59939;BME280;45801;51.810;19.444;2022-08-03T03:56:25;99432.55;;;17.00;76.15
59939;BME280;45801;51.810;19.444;2022-08-03T03:58:51;99431.89;;;17.02;76.41
59939;BME280;45801;51.810;19.444;2022-08-03T04:01:18;99432.99;;;17.04;76.15
59939;BME280;45801;51.810;19.444;2022-08-03T04:03:44;99433.20;;;17.06;76.42
59939;BME280;45801;51.810;19.444;2022-08-03T04:06:10;99433.25;;;17.08;76.38
59939;BME280;45801;51.810;19.444;2022-08-03T04:08:55;99437.70;;;17.10;76.29
59939;BME280;45801;51.810;19.444;2022-08-03T04:11:50;99441.27;;;17.10;76.48
59939;BME280;45801;51.810;19.444;2022-08-03T04:14:25;99441.48;;;17.12;76.38
59939;BME280;45801;51.810;19.444;2022-08-03T04:17:01;99441.73;;;17.15;76.81
59939;BME280;45801;51.810;19.444;2022-08-03T04:19:34;99443.02;;;17.19;77.07
59939;BME280;45801;51.810;19.444;2022-08-03T04:22:06;99443.80;;;17.23;77.11
59939;BME280;45801;51.810;19.444;2022-08-03T04:24:39;99448.49;;;17.27;77.30
59939;BME280;45801;51.810;19.444;2022-08-03T04:27:07;99444.34;;;17.31;77.32
59939;BME280;45801;51.810;19.444;2022-08-03T04:29:36;99444.59;;;17.36;77.58
59939;BME280;45801;51.810;19.444;2022-08-03T04:32:05;99445.04;;;17.40;77.72
59939;BME280;45801;51.810;19.444;2022-08-03T04:34:32;99450.78;;;17.44;77.65
59939;BME280;45801;51.810;19.444;2022-08-03T04:37:00;99452.63;;;17.47;77.56
59939;BME280;45801;51.810;19.444;2022-08-03T04:39:30;99450.90;;;17.51;77.74
59939;BME280;45801;51.810;19.444;2022-08-03T04:42:00;99452.21;;;17.54;77.85
59939;BME280;45801;51.810;19.444;2022-08-03T04:44:29;99456.86;;;17.57;77.77
59939;BME280;45801;51.810;19.444;2022-08-03T04:46:57;99461.01;;;17.61;77.79
59939;BME280;45801;51.810;19.444;2022-08-03T04:49:24;99464.64;;;17.65;78.10
59939;BME280;45801;51.810;19.444;2022-08-03T04:51:49;99466.13;;;17.70;78.44
59939;BME280;45801;51.810;19.444;2022-08-03T04:54:15;99464.27;;;17.74;78.59
59939;BME280;45801;51.810;19.444;2022-08-03T04:56:42;99464.36;;;17.80;78.73
59939;BME280;45801;51.810;19.444;2022-08-03T04:59:09;99467.66;;;17.86;78.85
59939;BME280;45801;51.810;19.444;2022-08-03T05:01:35;99465.32;;;17.92;79.08
59939;BME280;45801;51.810;19.444;2022-08-03T05:04:01;99462.61;;;17.99;79.25
59939;BME280;45801;51.810;19.444;2022-08-03T05:06:27;99464.89;;;18.08;79.04
59939;BME280;45801;51.810;19.444;2022-08-03T05:08:52;99462.67;;;18.14;79.33
59939;BME280;45801;51.810;19.444;2022-08-03T05:11:19;99464.03;;;18.20;79.26
59939;BME280;45801;51.810;19.444;2022-08-03T05:13:46;99464.13;;;18.26;79.15
59939;BME280;45801;51.810;19.444;2022-08-03T05:16:13;99468.30;;;18.32;78.98
59939;BME280;45801;51.810;19.444;2022-08-03T05:18:40;99468.20;;;18.37;78.89
59939;BME280;45801;51.810;19.444;2022-08-03T05:21:07;99469.17;;;18.43;79.04
59939;BME280;45801;51.810;19.444;2022-08-03T05:23:33;99466.40;;;18.47;79.21
59939;BME280;45801;51.810;19.444;2022-08-03T05:25:59;99467.36;;;18.53;79.27
59939;BME280;45801;51.810;19.444;2022-08-03T05:28:25;99471.88;;;18.57;79.70
59939;BME280;45801;51.810;19.444;2022-08-03T05:30:50;99469.09;;;18.61;79.54
59939;BME280;45801;51.810;19.444;2022-08-03T05:33:16;99470.38;;;18.65;79.57
59939;BME280;45801;51.810;19.444;2022-08-03T05:35:42;99471.86;;;18.69;79.94
59939;BME280;45801;51.810;19.444;2022-08-03T05:38:08;99468.89;;;18.71;80.06
59939;BME280;45801;51.810;19.444;2022-08-03T05:40:34;99473.75;;;18.77;79.93
59939;BME280;45801;51.810;19.444;2022-08-03T05:43:00;99475.92;;;18.80;80.17
59939;BME280;45801;51.810;19.444;2022-08-03T05:45:26;99478.29;;;18.84;80.14
59939;BME280;45801;51.810;19.444;2022-08-03T05:47:52;99476.39;;;18.86;79.91
59939;BME280;45801;51.810;19.444;2022-08-03T05:50:19;99479.10;;;18.89;80.09
59939;BME280;45801;51.810;19.444;2022-08-03T05:52:45;99478.26;;;18.92;80.14
59939;BME280;45801;51.810;19.444;2022-08-03T05:55:12;99476.70;;;18.95;80.33
59939;BME280;45801;51.810;19.444;2022-08-03T05:57:38;99475.85;;;18.99;80.21
59939;BME280;45801;51.810;19.444;2022-08-03T06:00:07;99478.07;;;19.06;80.60
59939;BME280;45801;51.810;19.444;2022-08-03T06:02:33;99479.06;;;19.14;80.58
59939;BME280;45801;51.810;19.444;2022-08-03T06:04:59;99479.52;;;19.21;80.49
59939;BME280;45801;51.810;19.444;2022-08-03T06:07:24;99478.89;;;19.28;80.56
59939;BME280;45801;51.810;19.444;2022-08-03T06:09:50;99481.83;;;19.36;80.26
59939;BME280;45801;51.810;19.444;2022-08-03T06:12:16;99482.27;;;19.44;79.86
59939;BME280;45801;51.810;19.444;2022-08-03T06:14:42;99485.20;;;19.51;79.73
59939;BME280;45801;51.810;19.444;2022-08-03T06:17:07;99484.91;;;19.58;79.69
59939;BME280;45801;51.810;19.444;2022-08-03T06:19:33;99488.73;;;19.65;79.38
59939;BME280;45801;51.810;19.444;2022-08-03T06:21:59;99491.64;;;19.72;79.06
59939;BME280;45801;51.810;19.444;2022-08-03T06:24:24;99493.50;;;19.78;78.82
59939;BME280;45801;51.810;19.444;2022-08-03T06:26:50;99493.92;;;19.83;77.64
59939;BME280;45801;51.810;19.444;2022-08-03T06:29:16;99498.05;;;19.87;77.62
59939;BME280;45801;51.810;19.444;2022-08-03T06:31:42;99495.75;;;19.89;77.37
59939;BME280;45801;51.810;19.444;2022-08-03T06:34:07;99491.51;;;19.91;77.06
59939;BME280;45801;51.810;19.444;2022-08-03T06:36:33;99490.48;;;19.95;77.14
59939;BME280;45801;51.810;19.444;2022-08-03T06:38:59;99491.77;;;19.99;76.85
59939;BME280;45801;51.810;19.444;2022-08-03T06:41:26;99493.98;;;20.06;77.27
59939;BME280;45801;51.810;19.444;2022-08-03T06:43:53;99491.38;;;20.15;77.27
59939;BME280;45801;51.810;19.444;2022-08-03T06:46:19;99492.88;;;20.24;77.39
59939;BME280;45801;51.810;19.444;2022-08-03T06:48:45;99493.30;;;20.33;76.83
59939;BME280;45801;51.810;19.444;2022-08-03T06:51:11;99496.55;;;20.39;76.22
59939;BME280;45801;51.810;19.444;2022-08-03T06:53:37;99498.71;;;20.43;75.23
59939;BME280;45801;51.810;19.444;2022-08-03T06:56:06;99502.66;;;20.46;74.64
59939;BME280;45801;51.810;19.444;2022-08-03T06:58:33;99505.55;;;20.53;73.82
59939;BME280;45801;51.810;19.444;2022-08-03T07:00:59;99503.11;;;20.59;73.30
59939;BME280;45801;51.810;19.444;2022-08-03T07:03:24;99503.19;;;20.67;72.69
59939;BME280;45801;51.810;19.444;2022-08-03T07:05:50;99506.64;;;20.76;72.37
59939;BME280;45801;51.810;19.444;2022-08-03T07:08:17;99511.13;;;20.82;72.47
59939;BME280;45801;51.810;19.444;2022-08-03T07:10:44;99513.10;;;20.86;71.71
59939;BME280;45801;51.810;19.444;2022-08-03T07:13:10;99511.35;;;20.89;71.71
59939;BME280;45801;51.810;19.444;2022-08-03T07:15:36;99510.31;;;20.92;71.97
59939;BME280;45801;51.810;19.444;2022-08-03T07:18:02;99511.39;;;20.96;72.55
59939;BME280;45801;51.810;19.444;2022-08-03T07:20:28;99506.07;;;20.99;72.82
59939;BME280;45801;51.810;19.444;2022-08-03T07:22:54;99502.16;;;21.01;73.17
59939;BME280;45801;51.810;19.444;2022-08-03T07:25:20;99507.02;;;21.08;72.75
59939;BME280;45801;51.810;19.444;2022-08-03T07:27:46;99502.92;;;21.12;70.81
59939;BME280;45801;51.810;19.444;2022-08-03T07:30:15;99507.06;;;21.18;71.30
59939;BME280;45801;51.810;19.444;2022-08-03T07:32:41;99503.68;;;21.22;70.57
59939;BME280;45801;51.810;19.444;2022-08-03T07:35:07;99501.55;;;21.24;70.20
59939;BME280;45801;51.810;19.444;2022-08-03T07:37:34;99500.69;;;21.27;68.63
59939;BME280;45801;51.810;19.444;2022-08-03T07:40:01;99497.31;;;21.31;69.28
59939;BME280;45801;51.810;19.444;2022-08-03T07:42:28;99497.86;;;21.36;69.07
59939;BME280;45801;51.810;19.444;2022-08-03T07:44:54;99498.23;;;21.41;68.52
59939;BME280;45801;51.810;19.444;2022-08-03T07:47:22;99498.78;;;21.45;69.75
59939;BME280;45801;51.810;19.444;2022-08-03T07:49:48;99498.13;;;21.50;69.74
59939;BME280;45801;51.810;19.444;2022-08-03T07:52:14;99499.22;;;21.55;69.62
59939;BME280;45801;51.810;19.444;2022-08-03T07:54:59;99493.69;;;21.60;69.25
59939;BME280;45801;51.810;19.444;2022-08-03T07:57:25;99498.34;;;21.61;68.71
59939;BME280;45801;51.810;19.444;2022-08-03T07:59:51;99499.77;;;21.64;68.55
59939;BME280;45801;51.810;19.444;2022-08-03T08:02:16;99500.15;;;21.72;68.69
59939;BME280;45801;51.810;19.444;2022-08-03T08:04:42;99498.39;;;21.80;68.39
59939;BME280;45801;51.810;19.444;2022-08-03T08:07:08;99498.58;;;21.86;67.63
59939;BME280;45801;51.810;19.444;2022-08-03T08:09:34;99497.16;;;21.93;64.59
59939;BME280;45801;51.810;19.444;2022-08-03T08:12:00;99497.36;;;22.00;65.05
59939;BME280;45801;51.810;19.444;2022-08-03T08:14:26;99498.97;;;22.07;65.14
59939;BME280;45801;51.810;19.444;2022-08-03T08:16:51;99499.86;;;22.11;65.01
59939;BME280;45801;51.810;19.444;2022-08-03T08:19:17;99496.64;;;22.16;65.03
59939;BME280;45801;51.810;19.444;2022-08-03T08:21:43;99497.73;;;22.19;64.84
59939;BME280;45801;51.810;19.444;2022-08-03T08:24:09;99497.73;;;22.21;65.35
59939;BME280;45801;51.810;19.444;2022-08-03T08:26:36;99502.36;;;22.23;65.23
59939;BME280;45801;51.810;19.444;2022-08-03T08:29:03;99497.73;;;22.23;64.64
59939;BME280;45801;51.810;19.444;2022-08-03T08:31:29;99497.73;;;22.25;63.77
59939;BME280;45801;51.810;19.444;2022-08-03T08:33:55;99503.09;;;22.31;64.91
59939;BME280;45801;51.810;19.444;2022-08-03T08:36:20;99502.41;;;22.36;64.88
59939;BME280;45801;51.810;19.444;2022-08-03T08:38:46;99504.02;;;22.41;63.50
59939;BME280;45801;51.810;19.444;2022-08-03T08:41:13;99500.96;;;22.42;63.78
59939;BME280;45801;51.810;19.444;2022-08-03T08:43:40;99502.59;;;22.41;63.13
59939;BME280;45801;51.810;19.444;2022-08-03T08:46:07;99505.26;;;22.43;63.33
59939;BME280;45801;51.810;19.444;2022-08-03T08:48:40;99504.73;;;22.39;62.78
59939;BME280;45801;51.810;19.444;2022-08-03T08:51:07;99505.08;;;22.37;64.84
59939;BME280;45801;51.810;19.444;2022-08-03T08:53:35;99505.08;;;22.42;64.72
59939;BME280;45801;51.810;19.444;2022-08-03T08:56:02;99505.06;;;22.51;65.41
59939;BME280;45801;51.810;19.444;2022-08-03T08:58:34;99505.61;;;22.53;65.14
59939;BME280;45801;51.810;19.444;2022-08-03T09:01:01;99507.75;;;22.54;64.36
59939;BME280;45801;51.810;19.444;2022-08-03T09:03:27;99507.56;;;22.60;64.22
59939;BME280;45801;51.810;19.444;2022-08-03T09:05:53;99505.41;;;22.68;64.07
59939;BME280;45801;51.810;19.444;2022-08-03T09:08:20;99507.20;;;22.76;63.62
59939;BME280;45801;51.810;19.444;2022-08-03T09:10:47;99502.17;;;22.78;62.35
59939;BME280;45801;51.810;19.444;2022-08-03T09:13:13;99502.71;;;22.77;62.92
59939;BME280;45801;51.810;19.444;2022-08-03T09:15:39;99500.40;;;22.76;63.30
59939;BME280;45801;51.810;19.444;2022-08-03T09:18:06;99500.38;;;22.82;62.67
59939;BME280;45801;51.810;19.444;2022-08-03T09:20:34;99494.65;;;22.87;62.42
59939;BME280;45801;51.810;19.444;2022-08-03T09:23:04;99492.52;;;22.92;61.99
59939;BME280;45801;51.810;19.444;2022-08-03T09:25:41;99495.71;;;22.96;61.48
59939;BME280;45801;51.810;19.444;2022-08-03T09:28:09;99494.79;;;23.02;61.80
59939;BME280;45801;51.810;19.444;2022-08-03T09:30:40;99489.79;;;23.06;61.79
59939;BME280;45801;51.810;19.444;2022-08-03T09:33:11;99488.02;;;23.10;60.05
59939;BME280;45801;51.810;19.444;2022-08-03T09:35:42;99480.14;;;23.15;60.47
59939;BME280;45801;51.810;19.444;2022-08-03T09:38:20;99476.70;;;23.23;61.48
59939;BME280;45801;51.810;19.444;2022-08-03T09:40:51;99481.15;;;23.31;61.63
59939;BME280;45801;51.810;19.444;2022-08-03T09:43:18;99482.00;;;23.39;59.74
59939;BME280;45801;51.810;19.444;2022-08-03T09:45:44;99478.58;;;23.44;60.24
59939;BME280;45801;51.810;19.444;2022-08-03T09:48:30;99475.86;;;23.53;60.87
59939;BME280;45801;51.810;19.444;2022-08-03T09:51:00;99475.09;;;23.63;61.50
59939;BME280;45801;51.810;19.444;2022-08-03T09:53:28;99471.10;;;23.71;61.22
59939;BME280;45801;51.810;19.444;2022-08-03T09:55:55;99474.45;;;23.79;59.55
59939;BME280;45801;51.810;19.444;2022-08-03T09:58:27;99472.09;;;23.84;59.17
59939;BME280;45801;51.810;19.444;2022-08-03T10:01:01;99468.86;;;23.91;60.80
59939;BME280;45801;51.810;19.444;2022-08-03T10:03:32;99470.77;;;23.97;57.66
59939;BME280;45801;51.810;19.444;2022-08-03T10:06:19;99475.40;;;24.03;57.60
59939;BME280;45801;51.810;19.444;2022-08-03T10:09:04;99475.86;;;24.10;58.75
59939;BME280;45801;51.810;19.444;2022-08-03T10:11:32;99473.84;;;24.18;58.51
59939;BME280;45801;51.810;19.444;2022-08-03T10:14:04;99469.48;;;24.24;58.19
59939;BME280;45801;51.810;19.444;2022-08-03T10:16:38;99470.52;;;24.29;56.76
59939;BME280;45801;51.810;19.444;2022-08-03T10:19:06;99467.45;;;24.32;56.15
59939;BME280;45801;51.810;19.444;2022-08-03T10:21:34;99462.58;;;24.38;58.13
59939;BME280;45801;51.810;19.444;2022-08-03T10:24:02;99465.89;;;24.46;57.65
59939;BME280;45801;51.810;19.444;2022-08-03T10:26:30;99464.94;;;24.54;56.37
59939;BME280;45801;51.810;19.444;2022-08-03T10:28:58;99464.90;;;24.60;57.08
59939;BME280;45801;51.810;19.444;2022-08-03T10:31:33;99467.31;;;24.68;56.15
59939;BME280;45801;51.810;19.444;2022-08-03T10:34:01;99462.61;;;24.75;57.06
59939;BME280;45801;51.810;19.444;2022-08-03T10:36:30;99465.02;;;24.84;57.05
59939;BME280;45801;51.810;19.444;2022-08-03T10:38:58;99462.59;;;24.93;56.78
59939;BME280;45801;51.810;19.444;2022-08-03T10:41:29;99465.00;;;25.01;57.60
59939;BME280;45801;51.810;19.444;2022-08-03T10:44:05;99463.54;;;25.02;54.20
59939;BME280;45801;51.810;19.444;2022-08-03T10:46:33;99467.71;;;24.99;56.25
59939;BME280;45801;51.810;19.444;2022-08-03T10:49:00;99464.51;;;24.97;55.37
59939;BME280;45801;51.810;19.444;2022-08-03T10:51:27;99461.16;;;24.91;55.25
59939;BME280;45801;51.810;19.444;2022-08-03T10:53:58;99457.24;;;24.90;55.31
59939;BME280;45801;51.810;19.444;2022-08-03T10:56:37;99456.73;;;24.87;53.80
59939;BME280;45801;51.810;19.444;2022-08-03T11:02:09;99452.94;;;25.05;55.07
59939;BME280;45801;51.810;19.444;2022-08-03T11:04:36;99457.33;;;25.13;53.59
59939;BME280;45801;51.810;19.444;2022-08-03T11:07:22;99450.42;;;25.20;51.98
59939;BME280;45801;51.810;19.444;2022-08-03T11:09:50;99450.52;;;25.28;51.02
59939;BME280;45801;51.810;19.444;2022-08-03T11:12:32;99443.97;;;25.37;52.51
59939;BME280;45801;51.810;19.444;2022-08-03T11:15:03;99440.46;;;25.44;51.97
59939;BME280;45801;51.810;19.444;2022-08-03T11:17:31;99444.02;;;25.46;53.50
59939;BME280;45801;51.810;19.444;2022-08-03T11:19:58;99441.13;;;25.48;52.06
59939;BME280;45801;51.810;19.444;2022-08-03T11:22:24;99441.64;;;25.49;51.66
59939;BME280;45801;51.810;19.444;2022-08-03T11:27:20;99438.30;;;25.57;53.56
59939;BME280;45801;51.810;19.444;2022-08-03T11:30:09;99437.72;;;25.60;52.02
59939;BME280;45801;51.810;19.444;2022-08-03T11:43:54;99425.58;;;25.91;52.11
59939;BME280;45801;51.810;19.444;2022-08-03T11:45:59;99429.64;;;25.96;52.21
59939;BME280;45801;51.810;19.444;2022-08-03T11:48:27;99430.34;;;25.98;50.81
59939;BME280;45801;51.810;19.444;2022-08-03T11:51:02;99428.92;;;25.95;49.77
59939;BME280;45801;51.810;19.444;2022-08-03T11:53:28;99424.08;;;25.95;51.48
59939;BME280;45801;51.810;19.444;2022-08-03T11:55:58;99425.48;;;25.98;51.15
59939;BME280;45801;51.810;19.444;2022-08-03T11:58:24;99422.80;;;25.97;51.79
59939;BME280;45801;51.810;19.444;2022-08-03T12:00:50;99424.29;;;25.94;51.97
59939;BME280;45801;51.810;19.444;2022-08-03T12:03:18;99420.27;;;25.88;51.87
59939;BME280;45801;51.810;19.444;2022-08-03T12:05:49;99417.69;;;25.81;51.61
59939;BME280;45801;51.810;19.444;2022-08-03T12:08:18;99416.69;;;25.75;53.01
59939;BME280;45801;51.810;19.444;2022-08-03T12:10:55;99421.80;;;25.70;54.53
59939;BME280;45801;51.810;19.444;2022-08-03T12:13:21;99419.53;;;25.65;55.10
59939;BME280;45801;51.810;19.444;2022-08-03T12:15:52;99417.98;;;25.61;55.90
59939;BME280;45801;51.810;19.444;2022-08-03T12:18:20;99417.70;;;25.55;56.74
59939;BME280;45801;51.810;19.444;2022-08-03T12:20:48;99419.19;;;25.51;56.39
59939;BME280;45801;51.810;19.444;2022-08-03T12:23:15;99412.55;;;25.52;56.04
59939;BME280;45801;51.810;19.444;2022-08-03T12:25:42;99413.19;;;25.56;55.72
59939;BME280;45801;51.810;19.444;2022-08-03T12:28:19;99407.67;;;25.67;55.26
59939;BME280;45801;51.810;19.444;2022-08-03T12:30:49;99403.90;;;25.78;54.36
59939;BME280;45801;51.810;19.444;2022-08-03T12:33:24;99400.86;;;25.89;53.46
59939;BME280;45801;51.810;19.444;2022-08-03T12:38:28;99397.05;;;26.05;51.56
59939;BME280;45801;51.810;19.444;2022-08-03T12:40:56;99395.73;;;26.07;53.33
59939;BME280;45801;51.810;19.444;2022-08-03T12:43:22;99392.24;;;26.12;52.28
59939;BME280;45801;51.810;19.444;2022-08-03T12:45:47;99389.42;;;26.20;51.70
59939;BME280;45801;51.810;19.444;2022-08-03T12:48:13;99388.89;;;26.29;51.62
59939;BME280;45801;51.810;19.444;2022-08-03T12:50:39;99388.52;;;26.40;51.32
59939;BME280;45801;51.810;19.444;2022-08-03T12:53:07;99388.69;;;26.50;50.22
59939;BME280;45801;51.810;19.444;2022-08-03T12:55:34;99385.46;;;26.59;50.34
59939;BME280;45801;51.810;19.444;2022-08-03T12:58:02;99386.73;;;26.69;51.00
59939;BME280;45801;51.810;19.444;2022-08-03T13:00:29;99386.18;;;26.78;50.52
59939;BME280;45801;51.810;19.444;2022-08-03T13:03:13;99381.70;;;26.86;49.29
59939;BME280;45801;51.810;19.444;2022-08-03T13:05:43;99380.25;;;26.96;50.08
59939;BME280;45801;51.810;19.444;2022-08-03T13:08:19;99384.02;;;27.05;48.37
59939;BME280;45801;51.810;19.444;2022-08-03T13:10:46;99381.69;;;27.13;48.86
59939;BME280;45801;51.810;19.444;2022-08-03T13:13:12;99378.29;;;27.21;49.38
59939;BME280;45801;51.810;19.444;2022-08-03T13:15:39;99379.20;;;27.27;48.48
59939;BME280;45801;51.810;19.444;2022-08-03T13:18:05;99380.34;;;27.34;48.12
59939;BME280;45801;51.810;19.444;2022-08-03T13:20:32;99380.61;;;27.39;47.85
59939;BME280;45801;51.810;19.444;2022-08-03T13:22:58;99377.45;;;27.43;49.10
59939;BME280;45801;51.810;19.444;2022-08-03T13:25:24;99377.94;;;27.45;48.44